Laytonville Rancheria, California
Current Conditions -  °F | °C
As of 8:56 AM on Thursday 18 Dec 2014 (Local Time) from KUKI Reporting Station
Overcast Overcast  
Wind Chill: 50°   Ceiling: 2500
Heat Index: 50°   Visibility: 7mi
Dew Point: 47°   Wind: 3mph
Humidity: 89%   Direction: 10°N
Pressure: 30.16"   Gusts: NA
Location:  39.6519°N, 123.451°W
Report Text: KUKI 181656Z AUTO 01003KT 7SM SCT004 OVC025 10/08 A3016 RMK AO2 SLP210 T01000083
Loading
Personal Weather Stations






























Interactive Weather Map New forecast layout! Learn more

10-Day Weather Forecast

Advertisements
Track Severe Weather on mobile